createdAt,value
2023-03-08T00:00:18.281Z,99038.84
2023-03-08T00:02:53.700Z,99036.75
2023-03-08T00:05:26.814Z,99037.98
2023-03-08T00:07:59.229Z,99030.81
2023-03-08T00:10:31.781Z,99029.19
2023-03-08T00:13:05.611Z,99021.27
2023-03-08T00:15:41.478Z,99022.37
2023-03-08T00:18:15.493Z,99015.56
2023-03-08T00:20:48.104Z,99017.37
2023-03-08T00:23:20.544Z,99003.88
2023-03-08T00:25:56.347Z,99004.98
2023-03-08T00:28:28.969Z,98991.84
2023-03-08T00:31:05.233Z,98995.73
2023-03-08T00:33:38.869Z,98988.69
2023-03-08T00:36:19.451Z,98990.77
2023-03-08T00:38:52.812Z,98991.49
2023-03-08T00:41:25.538Z,98985.08
2023-03-08T00:43:57.833Z,98986.66
2023-03-08T00:46:32.255Z,98985.31
2023-03-08T00:49:04.993Z,98980.08
2023-03-08T00:51:37.824Z,98974.50
2023-03-08T00:54:11.279Z,98976.59
2023-03-08T00:56:44.201Z,98968.91
2023-03-08T00:59:16.734Z,98965.25
2023-03-08T01:01:49.315Z,98970.13
2023-03-08T01:04:23.174Z,98960.52
2023-03-08T01:06:56.198Z,98956.00
2023-03-08T01:09:29.304Z,98947.95
2023-03-08T01:12:01.732Z,98942.00
2023-03-08T01:14:35.495Z,98941.48
2023-03-08T01:17:07.830Z,98944.29
2023-03-08T01:19:40.364Z,98951.37
2023-03-08T01:22:13.007Z,98950.26
2023-03-08T01:24:49.764Z,98953.28
2023-03-08T01:27:23.899Z,98947.94
2023-03-08T01:29:56.569Z,98944.98
2023-03-08T01:32:29.497Z,98946.70
2023-03-08T01:35:04.748Z,98953.00
2023-03-08T01:37:37.158Z,98960.20
2023-03-08T01:40:11.576Z,98945.36
2023-03-08T01:42:44.077Z,98937.09
2023-03-08T01:46:00.990Z,98941.70
2023-03-08T01:48:41.659Z,98937.92
2023-03-08T01:51:20.675Z,98937.05
2023-03-08T01:53:53.383Z,98934.98
2023-03-08T01:56:25.971Z,98940.34
2023-03-08T01:59:00.153Z,98939.72
2023-03-08T02:01:33.613Z,98945.83
2023-03-08T02:04:06.565Z,98934.13
2023-03-08T02:06:40.015Z,98934.01
2023-03-08T02:09:12.714Z,98929.13
2023-03-08T02:11:45.214Z,98929.37
2023-03-08T02:14:17.987Z,98936.34
2023-03-08T02:16:52.134Z,98934.26
2023-03-08T02:19:32.706Z,98936.70
2023-03-08T02:22:16.144Z,98936.23
2023-03-08T02:24:49.300Z,98935.13
2023-03-08T02:27:25.365Z,98930.41
2023-03-08T02:29:58.352Z,98931.87
2023-03-08T02:32:31.407Z,98919.47
2023-03-08T02:35:06.198Z,98918.84
2023-03-08T02:37:39.092Z,98920.56
2023-03-08T02:40:13.385Z,98922.15
2023-03-08T02:42:45.227Z,98918.25
2023-03-08T02:45:17.660Z,98914.48
2023-03-08T02:47:50.673Z,98910.84
2023-03-08T02:50:23.489Z,98913.28
2023-03-08T02:52:56.032Z,98916.44
2023-03-08T02:55:30.623Z,98910.84
2023-03-08T02:58:06.404Z,98912.42
2023-03-08T03:00:39.393Z,98921.68
2023-03-08T03:03:12.741Z,98911.08
2023-03-08T03:05:45.821Z,98913.77
2023-03-08T03:08:24.041Z,98914.62
2023-03-08T03:10:59.274Z,98919.39
2023-03-08T03:13:33.121Z,98907.58
2023-03-08T03:16:14.378Z,98905.61
2023-03-08T03:18:46.920Z,98905.25
2023-03-08T03:21:20.113Z,98902.42
2023-03-08T03:23:53.075Z,98897.22
2023-03-08T03:26:26.982Z,98899.03
2023-03-08T03:29:00.489Z,98894.66
2023-03-08T03:31:35.770Z,98894.27
2023-03-08T03:34:09.477Z,98896.59
2023-03-08T03:36:43.975Z,98898.55
2023-03-08T03:39:16.500Z,98895.13
2023-03-08T03:41:49.873Z,98890.13
2023-03-08T03:44:22.394Z,98882.60
2023-03-08T03:46:54.924Z,98880.40
2023-03-08T03:49:28.561Z,98878.46
2023-03-08T03:52:01.514Z,98880.66
2023-03-08T03:54:36.098Z,98870.66
2023-03-08T03:57:08.421Z,98868.22
2023-03-08T03:59:44.483Z,98855.09
2023-03-08T04:02:18.037Z,98869.34
2023-03-08T04:04:51.907Z,98872.73
2023-03-08T04:07:25.794Z,98863.46
2023-03-08T04:10:03.281Z,98854.47
2023-03-08T04:12:36.680Z,98864.83
2023-03-08T04:15:10.542Z,98854.94
2023-03-08T04:17:43.599Z,98845.94
2023-03-08T04:20:17.188Z,98838.61
2023-03-08T04:22:52.350Z,98840.30
2023-03-08T04:25:27.022Z,98841.91
2023-03-08T04:28:02.274Z,98839.11
2023-03-08T04:30:37.138Z,98834.70
2023-03-08T04:33:10.567Z,98837.77
2023-03-08T04:35:45.724Z,98832.02
2023-03-08T04:38:19.079Z,98827.05
2023-03-08T04:41:02.809Z,98822.77
2023-03-08T04:43:37.262Z,98823.36
2023-03-08T04:46:10.144Z,98824.68
2023-03-08T04:48:43.972Z,98828.20
2023-03-08T04:51:18.138Z,98831.62
2023-03-08T04:53:51.353Z,98839.55
2023-03-08T04:56:24.904Z,98833.81
2023-03-08T04:58:58.691Z,98836.59
2023-03-08T05:01:32.370Z,98833.79
2023-03-08T05:04:05.029Z,98833.54
2023-03-08T05:06:39.555Z,98825.12
2023-03-08T05:09:13.874Z,98817.30
2023-03-08T05:11:46.795Z,98818.64
2023-03-08T05:14:21.975Z,98815.58
2023-03-08T05:17:00.461Z,98811.66
2023-03-08T05:19:34.279Z,98811.14
2023-03-08T05:22:07.131Z,98817.34
2023-03-08T05:24:42.374Z,98818.17
2023-03-08T05:27:37.266Z,98816.42
2023-03-08T05:30:11.251Z,98812.27
2023-03-08T05:32:44.878Z,98812.27
2023-03-08T05:35:17.513Z,98805.68
2023-03-08T05:37:50.735Z,98804.78
2023-03-08T05:40:23.871Z,98804.87
2023-03-08T05:42:56.891Z,98814.62
2023-03-08T05:45:29.691Z,98803.23
2023-03-08T05:48:02.692Z,98802.84
2023-03-08T05:50:38.714Z,98800.20
2023-03-08T05:53:11.268Z,98807.42
2023-03-08T05:55:44.086Z,98803.22
2023-03-08T05:58:17.588Z,98798.52
2023-03-08T06:00:50.161Z,98791.16
2023-03-08T06:03:22.808Z,98793.97
2023-03-08T06:05:55.269Z,98795.81
2023-03-08T06:08:28.703Z,98794.67
2023-03-08T06:11:01.809Z,98795.07
2023-03-08T06:13:35.185Z,98781.19
2023-03-08T06:16:08.071Z,98772.58
2023-03-08T06:18:41.360Z,98771.04
2023-03-08T06:21:17.289Z,98764.49
2023-03-08T06:23:51.529Z,98769.39
2023-03-08T06:26:24.195Z,98771.02
2023-03-08T06:28:57.110Z,98778.22
2023-03-08T06:31:31.158Z,98780.15
2023-03-08T06:34:04.762Z,98777.43
2023-03-08T06:36:38.174Z,98780.53
2023-03-08T06:39:10.606Z,98778.84
2023-03-08T06:41:43.996Z,98775.73
2023-03-08T06:44:18.114Z,98776.98
2023-03-08T06:46:50.629Z,98770.59
2023-03-08T06:49:23.674Z,98779.50
2023-03-08T06:51:56.416Z,98769.62
2023-03-08T06:54:29.255Z,98770.39
2023-03-08T06:57:01.883Z,98768.94
2023-03-08T06:59:34.381Z,98774.36
2023-03-08T07:02:07.091Z,98770.78
2023-03-08T07:04:39.626Z,98769.17
2023-03-08T07:07:12.987Z,98772.42
2023-03-08T07:09:46.790Z,98766.83
2023-03-08T07:12:20.324Z,98774.02
2023-03-08T07:14:55.268Z,98761.86
2023-03-08T07:17:27.568Z,98760.98
2023-03-08T07:19:59.931Z,98761.45
2023-03-08T07:22:33.156Z,98769.73
2023-03-08T07:25:07.261Z,98767.35
2023-03-08T07:27:40.087Z,98763.08
2023-03-08T07:30:34.627Z,98763.65
2023-03-08T07:33:07.681Z,98749.56
2023-03-08T07:35:40.473Z,98743.91
2023-03-08T07:38:37.716Z,98754.82
2023-03-08T07:41:10.706Z,98752.08
2023-03-08T07:43:45.042Z,98755.19
2023-03-08T07:46:25.526Z,98761.83
2023-03-08T07:48:58.296Z,98759.91
2023-03-08T07:51:30.882Z,98751.22
2023-03-08T07:54:04.104Z,98755.64
2023-03-08T07:56:37.077Z,98751.63
2023-03-08T07:59:09.852Z,98754.62
2023-03-08T08:01:42.591Z,98759.42
2023-03-08T08:04:15.317Z,98751.67
2023-03-08T08:06:48.790Z,98740.61
2023-03-08T08:09:21.295Z,98738.50
2023-03-08T08:11:53.882Z,98723.93
2023-03-08T08:14:27.402Z,98728.80
2023-03-08T08:17:00.032Z,98729.38
2023-03-08T08:19:32.620Z,98726.17
2023-03-08T08:22:06.222Z,98723.55
2023-03-08T08:24:39.068Z,98720.53
2023-03-08T08:27:13.706Z,98722.30
2023-03-08T08:29:47.878Z,98725.62
2023-03-08T08:32:21.649Z,98726.45
2023-03-08T08:34:54.567Z,98722.40
2023-03-08T08:37:26.942Z,98731.52
2023-03-08T08:39:59.601Z,98725.86
2023-03-08T08:42:32.242Z,98726.80
2023-03-08T08:45:05.164Z,98732.16
2023-03-08T08:47:37.939Z,98731.28
2023-03-08T08:50:14.073Z,98734.95
2023-03-08T08:52:46.134Z,98733.89
2023-03-08T08:55:19.520Z,98721.70
2023-03-08T08:57:52.028Z,98723.41
2023-03-08T09:00:24.736Z,98714.36
2023-03-08T09:02:57.690Z,98719.17
2023-03-08T09:05:30.272Z,98717.94
2023-03-08T09:08:03.662Z,98718.89
2023-03-08T09:10:37.612Z,98714.73
2023-03-08T09:13:12.791Z,98715.06
2023-03-08T09:15:45.173Z,98714.73
2023-03-08T09:18:18.274Z,98707.98
2023-03-08T09:20:52.152Z,98718.31
2023-03-08T09:23:24.962Z,98710.73
2023-03-08T09:26:02.413Z,98714.63
2023-03-08T09:28:35.978Z,98715.99
2023-03-08T09:31:15.175Z,98704.31
2023-03-08T09:33:52.316Z,98706.69
2023-03-08T09:36:25.068Z,98713.82
2023-03-08T09:38:58.088Z,98715.83
2023-03-08T09:41:51.736Z,98707.55
2023-03-08T09:45:10.381Z,98710.58
2023-03-08T09:47:57.673Z,98715.01
2023-03-08T09:50:57.732Z,98708.58
2023-03-08T09:53:49.332Z,98702.47
2023-03-08T09:56:44.640Z,98706.53
2023-03-08T09:59:33.814Z,98710.95
2023-03-08T10:02:32.405Z,98708.58
2023-03-08T10:05:41.492Z,98713.34
2023-03-08T10:08:28.223Z,98708.62
2023-03-08T10:11:12.216Z,98714.52
2023-03-08T10:13:50.665Z,98708.58
2023-03-08T10:16:30.318Z,98715.17
2023-03-08T10:19:13.110Z,98729.30
2023-03-08T10:21:45.862Z,98720.23
2023-03-08T10:24:27.242Z,98717.60
2023-03-08T10:27:25.297Z,98704.56
2023-03-08T10:30:00.190Z,98697.54
2023-03-08T10:32:33.330Z,98680.53
2023-03-08T10:35:16.961Z,98682.77
2023-03-08T10:37:53.129Z,98689.36
2023-03-08T10:40:26.525Z,98676.52
2023-03-08T10:43:05.704Z,98694.11
2023-03-08T10:45:38.868Z,98694.44
2023-03-08T10:48:21.279Z,98684.42
2023-03-08T10:51:03.059Z,98682.19
2023-03-08T10:53:36.018Z,98673.70
2023-03-08T10:56:26.496Z,98672.41
2023-03-08T10:58:59.016Z,98677.88
2023-03-08T11:01:35.149Z,98673.27
2023-03-08T11:04:18.766Z,98672.93
2023-03-08T11:06:51.278Z,98668.23
2023-03-08T11:09:33.593Z,98671.77
2023-03-08T11:12:06.391Z,98661.34
2023-03-08T11:14:39.042Z,98671.45
2023-03-08T11:17:31.341Z,98674.14
2023-03-08T11:20:33.093Z,98665.52
2023-03-08T11:23:17.184Z,98666.97
2023-03-08T11:26:01.040Z,98653.75
2023-03-08T11:31:45.272Z,98653.92
2023-03-08T11:34:43.769Z,98647.70
2023-03-08T11:37:50.553Z,98634.55
2023-03-08T11:40:36.219Z,98635.59
2023-03-08T11:43:47.602Z,98637.83
2023-03-08T11:46:31.612Z,98629.14
2023-03-08T11:49:44.170Z,98621.63
2023-03-08T11:52:27.190Z,98625.88
2023-03-08T11:55:20.919Z,98625.02
2023-03-08T11:57:58.702Z,98633.78
2023-03-08T12:12:44.045Z,98623.63
2023-03-08T12:15:46.456Z,98635.84
2023-03-08T12:18:48.227Z,98645.70
2023-03-08T12:21:52.828Z,98635.11
2023-03-08T12:24:51.055Z,98628.42
2023-03-08T12:27:49.404Z,98651.09
2023-03-08T12:30:42.468Z,98651.28
2023-03-08T12:33:16.437Z,98654.52
2023-03-08T12:35:56.690Z,98658.22
2023-03-08T12:38:46.071Z,98662.42
2023-03-08T12:41:26.497Z,98665.80
2023-03-08T12:44:26.838Z,98669.49
2023-03-08T12:47:04.328Z,98669.86
2023-03-08T12:49:42.245Z,98656.17
2023-03-08T12:52:43.479Z,98670.55
2023-03-08T12:55:25.895Z,98672.89
2023-03-08T12:58:02.826Z,98667.48
2023-03-08T13:00:37.944Z,98677.64
2023-03-08T13:03:19.220Z,98680.02
2023-03-08T13:05:52.429Z,98675.45
2023-03-08T13:08:38.540Z,98674.27
2023-03-08T13:11:16.955Z,98669.55
2023-03-08T13:13:58.795Z,98675.10
2023-03-08T13:16:39.917Z,98668.30
2023-03-08T13:19:21.109Z,98671.12
2023-03-08T13:22:21.027Z,98669.94
2023-03-08T13:24:58.207Z,98658.58
2023-03-08T13:27:50.775Z,98657.42
2023-03-08T13:30:37.701Z,98651.31
2023-03-08T13:33:36.634Z,98658.03
2023-03-08T13:36:26.081Z,98660.03
2023-03-08T13:39:05.897Z,98658.51
2023-03-08T13:41:45.937Z,98658.16
2023-03-08T13:44:26.832Z,98657.64
2023-03-08T13:47:02.972Z,98666.95
2023-03-08T13:49:38.240Z,98658.02
2023-03-08T13:52:26.524Z,98651.47
2023-03-08T13:55:01.713Z,98644.34
2023-03-08T13:57:38.072Z,98647.75
2023-03-08T14:00:32.687Z,98656.73
2023-03-08T14:03:07.844Z,98645.42
2023-03-08T14:05:44.193Z,98647.95
2023-03-08T14:08:27.944Z,98648.77
2023-03-08T14:11:08.416Z,98656.20
2023-03-08T14:13:43.420Z,98658.58
2023-03-08T14:16:42.228Z,98677.72
2023-03-08T14:19:31.265Z,98664.36
2023-03-08T14:22:14.404Z,98671.12
2023-03-08T14:24:55.465Z,98677.55
2023-03-08T14:27:45.509Z,98686.48
2023-03-08T14:30:23.319Z,98680.38
2023-03-08T14:33:19.522Z,98685.29
2023-03-08T14:36:00.472Z,98684.92
2023-03-08T14:38:34.482Z,98699.15
2023-03-08T14:41:07.113Z,98700.83
2023-03-08T14:43:39.808Z,98697.97
2023-03-08T14:46:21.774Z,98704.89
2023-03-08T14:49:05.213Z,98699.84
2023-03-08T14:51:42.957Z,98703.59
2023-03-08T14:54:35.023Z,98702.30
2023-03-08T14:57:26.009Z,98698.23
2023-03-08T15:00:05.030Z,98698.72
2023-03-08T15:02:38.239Z,98704.62
2023-03-08T15:05:28.095Z,98705.09
2023-03-08T15:08:01.436Z,98708.28
2023-03-08T15:10:40.688Z,98717.05
2023-03-08T15:13:22.590Z,98709.58
2023-03-08T15:15:56.184Z,98718.00
2023-03-08T15:18:28.775Z,98714.58
2023-03-08T15:21:01.487Z,98731.81
2023-03-08T15:23:38.008Z,98724.51
2023-03-08T15:26:14.278Z,98718.55
2023-03-08T15:28:47.526Z,98724.98
2023-03-08T15:31:20.416Z,98728.69
2023-03-08T15:33:52.800Z,98729.98
2023-03-08T15:36:26.955Z,98734.70
2023-03-08T15:39:01.053Z,98746.48
2023-03-08T15:41:33.354Z,98740.74
2023-03-08T15:44:05.730Z,98742.74
2023-03-08T15:46:38.858Z,98758.25
2023-03-08T15:49:11.668Z,98744.90
2023-03-08T15:51:44.493Z,98737.65
2023-03-08T15:54:16.977Z,98750.30
2023-03-08T15:56:49.643Z,98754.02
2023-03-08T15:59:22.084Z,98760.11
2023-03-08T16:01:54.997Z,98765.84
2023-03-08T16:04:27.732Z,98774.13
2023-03-08T16:07:00.475Z,98772.29
2023-03-08T16:09:33.359Z,98776.03
2023-03-08T16:12:06.962Z,98788.53
2023-03-08T16:14:39.847Z,98795.44
2023-03-08T16:17:13.023Z,98802.84
2023-03-08T16:19:47.077Z,98809.45
2023-03-08T16:22:19.875Z,98806.56
2023-03-08T16:24:52.428Z,98817.38
2023-03-08T16:27:25.073Z,98812.98
2023-03-08T16:29:57.742Z,98813.81
2023-03-08T16:32:30.384Z,98819.19
2023-03-08T16:35:08.091Z,98827.81
2023-03-08T16:37:41.554Z,98840.96
2023-03-08T16:40:16.652Z,98856.53
2023-03-08T16:42:53.415Z,98852.66
2023-03-08T16:45:26.043Z,98850.64
2023-03-08T16:47:58.345Z,98857.33
2023-03-08T16:50:32.611Z,98863.05
2023-03-08T16:53:06.941Z,98867.25
2023-03-08T16:55:41.132Z,98876.48
2023-03-08T16:58:13.857Z,98882.31
2023-03-08T17:00:46.296Z,98879.35
2023-03-08T17:03:19.495Z,98883.18
2023-03-08T17:05:52.328Z,98892.86
2023-03-08T17:08:24.849Z,98895.11
2023-03-08T17:10:57.420Z,98896.01
2023-03-08T17:13:31.040Z,98901.66
2023-03-08T17:16:05.685Z,98899.17
2023-03-08T17:18:39.162Z,98897.50
2023-03-08T17:21:11.508Z,98901.45
2023-03-08T17:23:44.584Z,98891.02
2023-03-08T17:26:17.480Z,98892.98
2023-03-08T17:28:52.473Z,98886.45
2023-03-08T17:31:25.297Z,98895.50
2023-03-08T17:33:58.208Z,98892.38
2023-03-08T17:36:30.872Z,98885.52
2023-03-08T17:39:04.540Z,98888.80
2023-03-08T17:41:38.809Z,98888.02
2023-03-08T17:44:12.243Z,98894.36
2023-03-08T17:46:44.710Z,98898.69
2023-03-08T17:49:20.298Z,98902.82
2023-03-08T17:52:12.579Z,98906.77
2023-03-08T17:54:46.154Z,98899.55
2023-03-08T17:57:18.939Z,98901.75
2023-03-08T17:59:52.339Z,98904.59
2023-03-08T18:02:24.684Z,98903.87
2023-03-08T18:04:57.170Z,98910.95
2023-03-08T18:07:29.868Z,98901.32
2023-03-08T18:10:23.766Z,98900.84
2023-03-08T18:12:56.942Z,98900.45
2023-03-08T18:15:29.913Z,98895.02
2023-03-08T18:18:02.996Z,98904.37
2023-03-08T18:20:36.994Z,98914.09
2023-03-08T18:23:10.314Z,98924.33
2023-03-08T18:25:43.495Z,98928.78
2023-03-08T18:28:18.438Z,98936.63
2023-03-08T18:30:50.914Z,98943.78
2023-03-08T18:33:25.260Z,98948.13
2023-03-08T18:35:59.019Z,98950.45
2023-03-08T18:38:34.348Z,98949.37
2023-03-08T18:41:22.840Z,98952.73
2023-03-08T18:43:56.565Z,98955.70
2023-03-08T18:46:34.725Z,98948.63
2023-03-08T18:49:11.480Z,98950.31
2023-03-08T18:51:44.386Z,98949.73
2023-03-08T18:54:20.225Z,98950.52
2023-03-08T18:56:58.129Z,98957.60
2023-03-08T18:59:31.748Z,98955.98
2023-03-08T19:02:04.505Z,98954.28
2023-03-08T19:04:44.212Z,98955.25
2023-03-08T19:07:17.290Z,98951.21
2023-03-08T19:09:50.445Z,98953.22
2023-03-08T19:12:22.921Z,98949.37
2023-03-08T19:14:55.957Z,98937.67
2023-03-08T19:17:29.762Z,98935.64
2023-03-08T19:20:02.548Z,98934.45
2023-03-08T19:22:36.047Z,98935.24
2023-03-08T19:25:09.785Z,98938.69
2023-03-08T19:27:42.451Z,98934.95
2023-03-08T19:30:16.020Z,98948.20
2023-03-08T19:32:50.392Z,98948.41
2023-03-08T19:35:23.199Z,98942.39
2023-03-08T19:37:56.326Z,98941.77
2023-03-08T19:40:34.473Z,98946.49
2023-03-08T19:43:07.652Z,98952.75
2023-03-08T19:45:40.956Z,98959.63
2023-03-08T19:48:14.245Z,98959.56
2023-03-08T19:50:47.945Z,98962.82
2023-03-08T19:53:22.210Z,98960.27
2023-03-08T19:55:56.027Z,98960.83
2023-03-08T19:58:30.357Z,98959.70
2023-03-08T20:01:04.940Z,98955.93
2023-03-08T20:03:37.872Z,98954.28
2023-03-08T20:06:11.198Z,98963.36
2023-03-08T20:08:44.876Z,98959.39
2023-03-08T20:11:17.253Z,98959.29
2023-03-08T20:13:52.184Z,98961.05
2023-03-08T20:16:25.625Z,98967.58
2023-03-08T20:18:58.983Z,98966.50
2023-03-08T20:21:32.355Z,98964.36
2023-03-08T20:24:05.516Z,98959.90
2023-03-08T20:26:39.161Z,98952.95
2023-03-08T20:29:11.921Z,98962.27
2023-03-08T20:31:47.469Z,98962.06
2023-03-08T20:34:20.567Z,98961.12
2023-03-08T20:36:53.682Z,98958.14
2023-03-08T20:39:26.465Z,98955.72
2023-03-08T20:41:58.986Z,98946.58
2023-03-08T20:44:31.808Z,98942.94
2023-03-08T20:47:04.512Z,98947.52
2023-03-08T20:49:37.728Z,98944.41
2023-03-08T20:52:10.499Z,98940.84
2023-03-08T20:54:43.500Z,98928.88
2023-03-08T20:57:17.201Z,98925.32
2023-03-08T20:59:50.360Z,98912.73
2023-03-08T21:02:22.891Z,98913.31
2023-03-08T21:05:01.151Z,98906.30
2023-03-08T21:07:36.171Z,98911.95
2023-03-08T21:10:09.961Z,98912.22
2023-03-08T21:12:42.689Z,98912.48
2023-03-08T21:18:00.406Z,98905.47
2023-03-08T21:20:38.303Z,98909.77
2023-03-08T21:23:11.205Z,98890.13
2023-03-08T21:25:44.044Z,98899.33
2023-03-08T21:28:17.354Z,98904.33
2023-03-08T21:30:50.805Z,98897.39
2023-03-08T21:33:24.442Z,98891.66
2023-03-08T21:35:56.832Z,98899.94
2023-03-08T21:38:29.410Z,98896.05
2023-03-08T21:41:03.102Z,98894.83
2023-03-08T21:43:36.666Z,98887.11
2023-03-08T21:46:09.724Z,98882.25
2023-03-08T21:48:42.609Z,98886.55
2023-03-08T21:51:15.237Z,98889.98
2023-03-08T21:53:48.457Z,98881.09
2023-03-08T21:56:21.453Z,98886.73
2023-03-08T21:58:55.137Z,98886.22
2023-03-08T22:01:29.876Z,98884.18
2023-03-08T22:04:03.004Z,98891.25
2023-03-08T22:06:35.864Z,98891.73
2023-03-08T22:09:09.972Z,98890.03
2023-03-08T22:11:43.624Z,98890.52
2023-03-08T22:27:36.184Z,98889.35
2023-03-08T22:30:11.661Z,98891.59
2023-03-08T22:32:44.202Z,98892.86
2023-03-08T22:35:17.011Z,98888.02
2023-03-08T22:37:49.903Z,98891.52
2023-03-08T22:40:22.442Z,98894.63
2023-03-08T22:42:54.826Z,98898.95
2023-03-08T22:45:27.124Z,98892.25
2023-03-08T22:48:00.789Z,98884.31
2023-03-08T22:50:34.184Z,98884.70
2023-03-08T22:53:07.801Z,98880.06
2023-03-08T22:55:47.748Z,98893.36
2023-03-08T22:58:21.365Z,98882.27
2023-03-08T23:00:53.924Z,98884.95
2023-03-08T23:03:26.591Z,98881.54
2023-03-08T23:06:00.554Z,98885.83
2023-03-08T23:08:33.346Z,98881.80
2023-03-08T23:11:07.005Z,98882.31
2023-03-08T23:13:41.585Z,98874.38
2023-03-08T23:16:15.896Z,98870.61
2023-03-08T23:18:50.993Z,98868.75
2023-03-08T23:21:25.280Z,98867.80
2023-03-08T23:23:59.532Z,98868.34
2023-03-08T23:26:32.909Z,98859.68
2023-03-08T23:29:05.719Z,98860.55
2023-03-08T23:31:40.738Z,98855.78
2023-03-08T23:34:14.350Z,98847.25
2023-03-08T23:36:47.006Z,98851.15
2023-03-08T23:39:20.170Z,98847.00
2023-03-08T23:41:52.673Z,98847.56
2023-03-08T23:44:25.553Z,98849.30
2023-03-08T23:46:57.975Z,98852.94
2023-03-08T23:49:30.841Z,98849.42
2023-03-08T23:52:03.516Z,98850.16
2023-03-08T23:54:36.522Z,98852.97
2023-03-08T23:57:09.219Z,98855.17
2023-03-08T23:59:41.862Z,98847.83
